createdAt,value
2023-02-11T00:01:08.027Z,103143.84
2023-02-11T00:03:36.212Z,103144.81
2023-02-11T00:06:06.683Z,103134.09
2023-02-11T00:08:36.390Z,103115.59
2023-02-11T00:11:04.818Z,103102.03
2023-02-11T00:13:32.814Z,103130.91
2023-02-11T00:16:00.936Z,103114.63
2023-02-11T00:18:29.196Z,103110.06
2023-02-11T00:20:57.212Z,103119.84
2023-02-11T00:23:25.181Z,103118.22
2023-02-11T00:25:54.661Z,103119.53
2023-02-11T00:28:22.634Z,103120.06
2023-02-11T00:30:55.952Z,103134.59
2023-02-11T00:33:24.070Z,103127.41
2023-02-11T00:35:52.772Z,103133.97
2023-02-11T00:38:20.975Z,103118.22
2023-02-11T00:40:49.627Z,103109.19
2023-02-11T00:43:19.368Z,103117.00
2023-02-11T00:45:47.446Z,103103.47
2023-02-11T00:48:15.753Z,103105.66
2023-02-11T00:50:43.890Z,103114.47
2023-02-11T00:53:12.153Z,103113.72
2023-02-11T00:55:40.595Z,103114.41
2023-02-11T00:58:08.666Z,103109.00
2023-02-11T01:00:38.097Z,103120.44
2023-02-11T01:03:07.493Z,103127.31
2023-02-11T01:05:35.634Z,103127.50
2023-02-11T01:08:04.061Z,103146.28
2023-02-11T01:10:32.461Z,103142.19
2023-02-11T01:13:01.793Z,103135.19
2023-02-11T01:15:30.424Z,103140.97
2023-02-11T01:18:00.169Z,103131.97
2023-02-11T01:20:29.911Z,103131.06
2023-02-11T01:22:58.282Z,103129.13
2023-02-11T01:25:26.542Z,103120.44
2023-02-11T01:27:55.098Z,103119.53
2023-02-11T01:30:24.146Z,103115.59
2023-02-11T01:32:52.516Z,103125.66
2023-02-11T01:35:21.766Z,103116.56
2023-02-11T01:37:49.956Z,103122.88
2023-02-11T01:40:19.952Z,103119.13
2023-02-11T01:42:50.898Z,103121.00
2023-02-11T01:45:52.807Z,103119.34
2023-02-11T01:48:25.810Z,103111.59
2023-02-11T01:51:00.829Z,103114.72
2023-02-11T01:53:48.483Z,103107.94
2023-02-11T01:56:37.634Z,103105.09
2023-02-11T01:59:12.745Z,103092.44
2023-02-11T02:01:44.052Z,103088.66
2023-02-11T02:04:13.515Z,103106.94
2023-02-11T02:06:50.199Z,103115.94
2023-02-11T02:09:23.280Z,103106.41
2023-02-11T02:11:51.944Z,103099.63
2023-02-11T02:14:20.412Z,103111.16
2023-02-11T02:16:48.568Z,103101.69
2023-02-11T02:19:55.177Z,103079.69
2023-02-11T02:22:56.757Z,103081.09
2023-02-11T02:25:41.780Z,103081.22
2023-02-11T02:28:29.942Z,103084.13
2023-02-11T02:31:20.530Z,103079.75
2023-02-11T02:33:56.743Z,103078.28
2023-02-11T02:36:33.054Z,103054.78
2023-02-11T02:39:04.849Z,103064.00
2023-02-11T02:41:35.375Z,103066.53
2023-02-11T02:44:03.898Z,103071.44
2023-02-11T02:46:34.079Z,103057.38
2023-02-11T02:49:03.561Z,103059.50
2023-02-11T02:51:56.794Z,103051.13
2023-02-11T02:54:52.663Z,103043.84
2023-02-11T02:57:31.848Z,103049.00
2023-02-11T03:00:12.997Z,103047.06
2023-02-11T03:02:47.872Z,103042.53
2023-02-11T03:05:23.594Z,103056.31
2023-02-11T03:07:58.648Z,103052.25
2023-02-11T03:10:30.608Z,103050.31
2023-02-11T03:13:00.843Z,103044.91
2023-02-11T03:15:32.877Z,103042.53
2023-02-11T03:18:04.335Z,103032.16
2023-02-11T03:20:37.343Z,103043.06
2023-02-11T03:23:09.272Z,103046.00
2023-02-11T03:25:43.200Z,103047.00
2023-02-11T03:28:16.941Z,103039.38
2023-02-11T03:30:50.535Z,103042.41
2023-02-11T03:33:22.867Z,103030.97
2023-02-11T03:35:57.784Z,103022.72
2023-02-11T03:38:30.664Z,103034.06
2023-02-11T03:40:59.909Z,103038.44
2023-02-11T03:43:34.170Z,103039.69
2023-02-11T03:46:04.421Z,103038.59
2023-02-11T03:48:36.325Z,103036.00
2023-02-11T03:51:08.946Z,103040.00
2023-02-11T03:53:39.710Z,103027.00
2023-02-11T03:56:11.792Z,103026.53
2023-02-11T03:58:39.775Z,103034.75
2023-02-11T04:01:09.939Z,103027.50
2023-02-11T04:03:38.281Z,103035.06
2023-02-11T04:06:08.125Z,103038.59
2023-02-11T04:08:36.366Z,103039.22
2023-02-11T04:11:04.481Z,103046.53
2023-02-11T04:13:32.640Z,103039.09
2023-02-11T04:16:00.647Z,103039.97
2023-02-11T04:18:28.679Z,103035.69
2023-02-11T04:20:56.703Z,103030.69
2023-02-11T04:23:26.251Z,103027.94
2023-02-11T04:25:54.442Z,103026.91
2023-02-11T04:28:22.651Z,103029.44
2023-02-11T04:30:50.945Z,103038.63
2023-02-11T04:33:18.965Z,103033.09
2023-02-11T04:35:47.565Z,103037.94
2023-02-11T04:38:15.825Z,103036.06
2023-02-11T04:40:45.240Z,103043.94
2023-02-11T04:43:13.324Z,103050.44
2023-02-11T04:45:41.484Z,103051.81
2023-02-11T04:48:09.483Z,103047.06
2023-02-11T04:50:37.583Z,103049.00
2023-02-11T04:53:05.657Z,103032.25
2023-02-11T04:55:33.844Z,103045.44
2023-02-11T04:58:03.841Z,103036.22
2023-02-11T05:00:32.267Z,103037.03
2023-02-11T05:03:00.476Z,103034.13
2023-02-11T05:05:28.514Z,103047.50
2023-02-11T05:07:56.735Z,103037.22
2023-02-11T05:10:24.992Z,103046.84
2023-02-11T05:12:55.416Z,103048.44
2023-02-11T05:15:25.678Z,103059.34
2023-02-11T05:17:54.579Z,103050.91
2023-02-11T05:20:23.734Z,103044.31
2023-02-11T05:22:52.551Z,103050.25
2023-02-11T05:25:22.685Z,103046.25
2023-02-11T05:27:50.806Z,103037.50
2023-02-11T05:30:19.611Z,103043.88
2023-02-11T05:32:49.051Z,103032.66
2023-02-11T05:35:17.608Z,103039.25
2023-02-11T05:37:46.740Z,103032.19
2023-02-11T05:40:15.064Z,103031.78
2023-02-11T05:42:43.566Z,103042.19
2023-02-11T05:45:11.903Z,103051.19
2023-02-11T05:47:39.804Z,103050.69
2023-02-11T05:50:09.905Z,103043.94
2023-02-11T05:52:38.032Z,103048.69
2023-02-11T05:55:07.009Z,103046.66
2023-02-11T05:57:34.905Z,103041.59
2023-02-11T06:00:03.437Z,103051.03
2023-02-11T06:02:41.044Z,103040.44
2023-02-11T06:05:10.872Z,103049.38
2023-02-11T06:07:39.031Z,103054.28
2023-02-11T06:10:08.655Z,103058.00
2023-02-11T06:12:38.038Z,103044.22
2023-02-11T06:15:07.509Z,103051.03
2023-02-11T06:17:36.725Z,103049.66
2023-02-11T06:20:06.455Z,103043.25
2023-02-11T06:22:35.834Z,103046.16
2023-02-11T06:25:04.178Z,103041.81
2023-02-11T06:27:32.396Z,103041.13
2023-02-11T06:30:00.793Z,103040.44
2023-02-11T06:32:46.068Z,103037.44
2023-02-11T06:35:15.812Z,103041.81
2023-02-11T06:37:45.763Z,103045.47
2023-02-11T06:40:14.393Z,103052.94
2023-02-11T06:42:42.750Z,103049.84
2023-02-11T06:45:13.177Z,103053.94
2023-02-11T06:47:42.171Z,103056.72
2023-02-11T06:50:14.496Z,103051.50
2023-02-11T06:52:43.162Z,103058.47
2023-02-11T06:55:14.264Z,103061.38
2023-02-11T06:57:42.851Z,103057.59
2023-02-11T07:00:12.796Z,103058.19
2023-02-11T07:02:41.251Z,103059.34
2023-02-11T07:05:10.482Z,103054.81
2023-02-11T07:07:39.325Z,103053.50
2023-02-11T07:10:08.465Z,103070.09
2023-02-11T07:12:37.977Z,103070.59
2023-02-11T07:15:07.779Z,103074.50
2023-02-11T07:17:36.417Z,103076.59
2023-02-11T07:20:05.523Z,103069.53
2023-02-11T07:22:35.262Z,103077.97
2023-02-11T07:25:04.742Z,103077.09
2023-02-11T07:27:33.166Z,103080.22
2023-02-11T07:30:07.338Z,103079.81
2023-02-11T07:32:35.730Z,103081.94
2023-02-11T07:35:03.988Z,103067.78
2023-02-11T07:37:32.020Z,103064.88
2023-02-11T07:40:01.557Z,103075.47
2023-02-11T07:42:29.917Z,103065.84
2023-02-11T07:44:58.010Z,103065.19
2023-02-11T07:47:28.269Z,103058.09
2023-02-11T07:49:56.817Z,103066.03
2023-02-11T07:52:25.264Z,103073.13
2023-02-11T07:54:53.461Z,103072.13
2023-02-11T07:57:21.551Z,103075.16
2023-02-11T07:59:49.662Z,103087.84
2023-02-11T08:02:18.202Z,103090.09
2023-02-11T08:04:48.463Z,103087.19
2023-02-11T08:07:17.596Z,103095.97
2023-02-11T08:09:46.028Z,103099.59
2023-02-11T08:12:14.575Z,103096.97
2023-02-11T08:14:42.564Z,103099.50
2023-02-11T08:17:10.588Z,103099.03
2023-02-11T08:19:40.081Z,103096.69
2023-02-11T08:22:09.846Z,103102.41
2023-02-11T08:24:37.857Z,103108.13
2023-02-11T08:27:05.805Z,103118.81
2023-02-11T08:29:34.083Z,103125.78
2023-02-11T08:32:02.949Z,103125.75
2023-02-11T08:34:31.250Z,103132.00
2023-02-11T08:36:59.326Z,103137.72
2023-02-11T08:39:28.882Z,103134.81
2023-02-11T08:41:58.003Z,103147.13
2023-02-11T08:44:26.212Z,103137.25
2023-02-11T08:46:54.767Z,103129.25
2023-02-11T08:49:23.907Z,103141.59
2023-02-11T08:51:52.004Z,103146.66
2023-02-11T08:54:20.117Z,103157.22
2023-02-11T08:56:53.188Z,103155.09
2023-02-11T08:59:21.322Z,103159.75
2023-02-11T09:01:49.927Z,103161.78
2023-02-11T09:04:18.795Z,103168.75
2023-02-11T09:06:48.960Z,103175.06
2023-02-11T09:09:18.181Z,103162.75
2023-02-11T09:11:48.176Z,103168.19
2023-02-11T09:14:20.852Z,103178.06
2023-02-11T09:16:49.898Z,103191.28
2023-02-11T09:19:19.666Z,103191.38
2023-02-11T09:21:48.721Z,103197.59
2023-02-11T09:24:17.378Z,103199.13
2023-02-11T09:26:45.891Z,103196.13
2023-02-11T09:29:14.550Z,103198.56
2023-02-11T09:31:44.384Z,103206.31
2023-02-11T09:34:14.319Z,103205.84
2023-02-11T09:36:43.541Z,103205.94
2023-02-11T09:39:17.301Z,103210.69
2023-02-11T09:42:15.661Z,103214.56
2023-02-11T09:44:47.986Z,103216.59
2023-02-11T09:47:37.315Z,103220.38
2023-02-11T09:50:15.584Z,103224.25
2023-02-11T09:52:53.368Z,103216.91
2023-02-11T09:55:27.471Z,103219.72
2023-02-11T09:57:58.214Z,103226.91
2023-02-11T10:00:40.844Z,103231.34
2023-02-11T10:03:46.655Z,103234.38
2023-02-11T10:06:28.214Z,103249.72
2023-02-11T10:09:07.942Z,103250.34
2023-02-11T10:11:49.457Z,103251.78
2023-02-11T10:14:36.430Z,103253.59
2023-02-11T10:17:17.461Z,103264.88
2023-02-11T10:20:05.614Z,103259.31
2023-02-11T10:22:40.679Z,103259.25
2023-02-11T10:25:21.922Z,103264.09
2023-02-11T10:27:52.643Z,103263.81
2023-02-11T10:30:30.191Z,103283.72
2023-02-11T10:33:05.190Z,103275.84
2023-02-11T10:35:35.845Z,103272.38
2023-02-11T10:38:06.975Z,103273.13
2023-02-11T10:40:35.841Z,103286.81
2023-02-11T10:43:08.117Z,103285.25
2023-02-11T10:45:40.997Z,103277.69
2023-02-11T10:48:42.366Z,103271.41
2023-02-11T10:51:20.787Z,103276.31
2023-02-11T10:53:51.813Z,103280.25
2023-02-11T10:56:27.844Z,103286.09
2023-02-11T10:59:00.148Z,103289.72
2023-02-11T11:01:46.534Z,103292.19
2023-02-11T11:04:41.195Z,103298.25
2023-02-11T11:07:23.699Z,103307.19
2023-02-11T11:09:55.896Z,103300.09
2023-02-11T11:12:48.125Z,103301.25
2023-02-11T11:15:23.973Z,103308.56
2023-02-11T11:18:20.907Z,103300.50
2023-02-11T11:21:00.839Z,103302.69
2023-02-11T11:23:32.226Z,103312.56
2023-02-11T11:26:06.291Z,103310.97
2023-02-11T11:28:41.037Z,103313.78
2023-02-11T11:31:18.429Z,103316.50
2023-02-11T11:33:49.210Z,103307.09
2023-02-11T11:36:22.815Z,103314.22
2023-02-11T11:38:54.781Z,103299.03
2023-02-11T11:41:28.658Z,103310.34
2023-02-11T11:43:58.210Z,103311.69
2023-02-11T11:46:30.061Z,103313.97
2023-02-11T11:49:17.668Z,103313.09
2023-02-11T11:51:58.111Z,103308.16
2023-02-11T11:54:30.501Z,103314.25
2023-02-11T11:57:04.614Z,103308.25
2023-02-11T11:59:34.317Z,103302.22
2023-02-11T12:02:36.953Z,103307.16
2023-02-11T12:05:13.101Z,103307.97
2023-02-11T12:07:53.293Z,103321.38
2023-02-11T12:10:46.909Z,103303.66
2023-02-11T12:13:35.455Z,103299.94
2023-02-11T12:16:17.393Z,103302.31
2023-02-11T12:19:13.659Z,103306.78
2023-02-11T12:21:52.117Z,103307.88
2023-02-11T12:24:36.885Z,103305.91
2023-02-11T12:27:14.500Z,103290.25
2023-02-11T12:30:02.715Z,103297.66
2023-02-11T12:32:39.748Z,103293.84
2023-02-11T12:35:21.854Z,103305.56
2023-02-11T12:38:09.894Z,103300.56
2023-02-11T12:40:47.250Z,103294.25
2023-02-11T12:43:22.746Z,103313.75
2023-02-11T12:46:17.630Z,103300.13
2023-02-11T12:49:07.543Z,103309.00
2023-02-11T12:51:51.497Z,103307.47
2023-02-11T12:54:28.880Z,103302.47
2023-02-11T12:57:04.113Z,103309.63
2023-02-11T12:59:46.632Z,103314.41
2023-02-11T13:02:26.504Z,103307.38
2023-02-11T13:04:59.250Z,103315.47
2023-02-11T13:07:33.732Z,103320.63
2023-02-11T13:10:08.940Z,103329.00
2023-02-11T13:12:56.787Z,103322.56
2023-02-11T13:15:27.879Z,103326.78
2023-02-11T13:18:02.211Z,103324.25
2023-02-11T13:20:41.558Z,103339.13
2023-02-11T13:23:21.082Z,103339.84
2023-02-11T13:25:56.873Z,103333.09
2023-02-11T13:28:40.787Z,103335.06
2023-02-11T13:31:13.400Z,103329.19
2023-02-11T13:33:46.768Z,103322.91
2023-02-11T13:36:28.124Z,103322.22
2023-02-11T13:39:10.954Z,103322.16
2023-02-11T13:41:51.577Z,103316.97
2023-02-11T13:44:28.617Z,103343.78
2023-02-11T13:47:05.500Z,103334.94
2023-02-11T13:49:42.446Z,103329.75
2023-02-11T13:52:29.209Z,103321.97
2023-02-11T13:55:06.578Z,103320.16
2023-02-11T13:57:43.896Z,103322.84
2023-02-11T14:00:45.237Z,103333.97
2023-02-11T14:03:48.705Z,103331.25
2023-02-11T14:06:40.988Z,103342.25
2023-02-11T14:09:39.944Z,103331.66
2023-02-11T14:12:27.362Z,103338.78
2023-02-11T14:15:38.336Z,103343.75
2023-02-11T14:18:39.920Z,103341.69
2023-02-11T14:21:16.278Z,103341.44
2023-02-11T14:23:45.772Z,103341.94
2023-02-11T14:26:35.078Z,103347.84
2023-02-11T14:29:14.113Z,103347.22
2023-02-11T14:31:49.244Z,103359.88
2023-02-11T14:34:39.331Z,103357.72
2023-02-11T14:37:18.314Z,103358.28
2023-02-11T14:40:04.167Z,103355.09
2023-02-11T14:42:32.453Z,103357.16
2023-02-11T14:45:06.978Z,103356.25
2023-02-11T14:47:42.049Z,103345.16
2023-02-11T14:50:19.203Z,103355.59
2023-02-11T14:52:49.828Z,103356.25
2023-02-11T14:55:29.330Z,103353.06
2023-02-11T14:58:15.458Z,103348.81
2023-02-11T15:00:56.505Z,103348.97
2023-02-11T15:03:34.838Z,103356.19
2023-02-11T15:06:07.463Z,103365.72
2023-02-11T15:08:39.316Z,103362.50
2023-02-11T15:11:12.983Z,103371.06
2023-02-11T15:13:48.083Z,103370.38
2023-02-11T15:16:19.375Z,103373.50
2023-02-11T15:18:51.783Z,103371.69
2023-02-11T15:21:25.848Z,103380.56
2023-02-11T15:24:00.698Z,103375.00
2023-02-11T15:26:30.416Z,103386.66
2023-02-11T15:28:59.420Z,103387.47
2023-02-11T15:31:29.440Z,103387.88
2023-02-11T15:34:08.850Z,103392.03
2023-02-11T15:36:37.117Z,103394.25
2023-02-11T15:39:20.940Z,103392.63
2023-02-11T15:41:48.860Z,103390.94
2023-02-11T15:44:31.149Z,103393.94
2023-02-11T15:46:59.600Z,103385.03
2023-02-11T15:49:28.327Z,103374.81
2023-02-11T15:51:58.275Z,103374.53
2023-02-11T15:54:32.057Z,103371.63
2023-02-11T15:57:05.583Z,103376.84
2023-02-11T15:59:38.181Z,103385.22
2023-02-11T16:02:17.216Z,103383.50
2023-02-11T16:04:52.370Z,103392.81
2023-02-11T16:07:39.582Z,103393.66
2023-02-11T16:10:24.610Z,103396.59
2023-02-11T16:12:55.328Z,103401.84
2023-02-11T16:15:46.404Z,103401.53
2023-02-11T16:18:31.067Z,103402.34
2023-02-11T16:21:07.056Z,103396.72
2023-02-11T16:23:39.022Z,103414.41
2023-02-11T16:26:14.128Z,103397.94
2023-02-11T16:28:42.457Z,103404.34
2023-02-11T16:31:11.965Z,103412.44
2023-02-11T16:33:40.335Z,103407.66
2023-02-11T16:36:14.254Z,103410.94
2023-02-11T16:38:42.385Z,103415.06
2023-02-11T16:41:12.995Z,103422.56
2023-02-11T16:43:41.315Z,103430.31
2023-02-11T16:46:10.217Z,103424.69
2023-02-11T16:48:39.301Z,103432.28
2023-02-11T16:51:09.861Z,103442.09
2023-02-11T16:53:38.647Z,103436.72
2023-02-11T16:56:07.203Z,103452.50
2023-02-11T16:58:39.692Z,103449.56
2023-02-11T17:01:10.175Z,103448.78
2023-02-11T17:03:41.202Z,103452.09
2023-02-11T17:06:11.998Z,103452.69
2023-02-11T17:08:40.647Z,103453.53
2023-02-11T17:11:10.395Z,103457.53
2023-02-11T17:13:42.014Z,103457.25
2023-02-11T17:16:18.824Z,103472.13
2023-02-11T17:18:47.810Z,103474.09
2023-02-11T17:21:17.089Z,103481.16
2023-02-11T17:23:46.084Z,103485.44
2023-02-11T17:26:15.211Z,103487.19
2023-02-11T17:28:44.832Z,103482.22
2023-02-11T17:31:13.428Z,103488.25
2023-02-11T17:33:41.720Z,103497.28
2023-02-11T17:36:12.262Z,103480.09
2023-02-11T17:38:45.932Z,103488.16
2023-02-11T17:41:13.992Z,103470.91
2023-02-11T17:43:42.948Z,103481.03
2023-02-11T17:46:14.465Z,103482.19
2023-02-11T17:48:42.877Z,103482.00
2023-02-11T17:51:23.091Z,103489.66
2023-02-11T17:53:52.002Z,103495.59
2023-02-11T17:56:20.402Z,103488.69
2023-02-11T17:58:48.731Z,103495.09
2023-02-11T18:01:18.314Z,103502.09
2023-02-11T18:03:46.425Z,103499.97
2023-02-11T18:06:15.651Z,103507.47
2023-02-11T18:08:43.861Z,103505.91
2023-02-11T18:11:15.175Z,103510.47
2023-02-11T18:13:43.820Z,103513.44
2023-02-11T18:16:15.924Z,103521.25
2023-02-11T18:18:45.907Z,103534.47
2023-02-11T18:21:16.860Z,103531.28
2023-02-11T18:23:46.511Z,103540.31
2023-02-11T18:26:16.512Z,103540.81
2023-02-11T18:28:45.957Z,103531.28
2023-02-11T18:31:15.726Z,103534.38
2023-02-11T18:33:45.817Z,103526.59
2023-02-11T18:36:15.715Z,103532.69
2023-02-11T18:38:45.097Z,103530.84
2023-02-11T18:41:13.499Z,103535.59
2023-02-11T18:43:42.986Z,103530.09
2023-02-11T18:46:12.719Z,103531.66
2023-02-11T18:48:41.765Z,103532.03
2023-02-11T18:51:12.458Z,103529.94
2023-02-11T18:53:40.832Z,103538.53
2023-02-11T18:56:09.776Z,103537.56
2023-02-11T18:58:38.553Z,103539.69
2023-02-11T19:01:12.714Z,103542.53
2023-02-11T19:03:40.807Z,103539.31
2023-02-11T19:06:17.972Z,103547.56
2023-02-11T19:08:46.098Z,103551.25
2023-02-11T19:11:16.087Z,103560.44
2023-02-11T19:13:43.998Z,103552.47
2023-02-11T19:16:14.863Z,103564.66
2023-02-11T19:18:43.101Z,103565.25
2023-02-11T19:21:14.407Z,103566.25
2023-02-11T19:23:44.364Z,103563.34
2023-02-11T19:26:15.123Z,103571.78
2023-02-11T19:28:44.897Z,103575.88
2023-02-11T19:31:13.049Z,103568.84
2023-02-11T19:33:41.126Z,103562.53
2023-02-11T19:36:11.884Z,103565.09
2023-02-11T19:38:40.023Z,103569.63
2023-02-11T19:41:12.365Z,103567.97
2023-02-11T19:43:41.597Z,103569.81
2023-02-11T19:46:10.059Z,103567.91
2023-02-11T19:48:38.158Z,103574.22
2023-02-11T19:51:13.115Z,103574.47
2023-02-11T19:53:41.625Z,103577.91
2023-02-11T19:56:12.672Z,103581.91
2023-02-11T19:58:41.774Z,103583.28
2023-02-11T20:01:11.575Z,103587.34
2023-02-11T20:03:42.424Z,103587.19
2023-02-11T20:06:14.103Z,103591.03
2023-02-11T20:08:42.502Z,103590.31
2023-02-11T20:11:14.257Z,103605.13
2023-02-11T20:13:43.210Z,103603.81
2023-02-11T20:16:13.831Z,103598.38
2023-02-11T20:18:42.367Z,103614.84
2023-02-11T20:21:11.361Z,103616.94
2023-02-11T20:23:40.376Z,103616.19
2023-02-11T20:26:09.704Z,103617.84
2023-02-11T20:28:39.347Z,103616.09
2023-02-11T20:31:08.068Z,103616.00
2023-02-11T20:33:36.145Z,103619.44
2023-02-11T20:36:06.552Z,103627.03
2023-02-11T20:38:34.834Z,103625.84
2023-02-11T20:41:04.632Z,103624.78
2023-02-11T20:43:33.129Z,103634.94
2023-02-11T20:46:05.955Z,103628.03
2023-02-11T20:48:34.821Z,103630.06
2023-02-11T20:51:07.412Z,103645.53
2023-02-11T20:53:36.710Z,103651.25
2023-02-11T20:56:06.653Z,103653.63
2023-02-11T20:58:35.835Z,103656.09
2023-02-11T21:01:10.125Z,103656.88
2023-02-11T21:03:38.179Z,103651.84
2023-02-11T21:06:07.065Z,103652.75
2023-02-11T21:08:35.264Z,103641.97
2023-02-11T21:11:03.822Z,103654.16
2023-02-11T21:13:31.918Z,103656.63
2023-02-11T21:16:00.332Z,103658.09
2023-02-11T21:18:30.773Z,103654.56
2023-02-11T21:21:00.185Z,103656.00
2023-02-11T21:23:29.115Z,103650.84
2023-02-11T21:25:57.941Z,103662.13
2023-02-11T21:28:27.140Z,103663.78
2023-02-11T21:30:57.334Z,103674.41
2023-02-11T21:33:26.731Z,103680.53
2023-02-11T21:35:57.465Z,103685.94
2023-02-11T21:38:27.530Z,103689.81
2023-02-11T21:40:55.939Z,103687.50
2023-02-11T21:43:25.004Z,103690.78
2023-02-11T21:45:53.755Z,103693.25
2023-02-11T21:48:23.857Z,103690.06
2023-02-11T21:50:52.303Z,103693.16
2023-02-11T21:53:21.692Z,103693.88
2023-02-11T21:55:51.346Z,103695.25
2023-02-11T21:58:19.643Z,103697.06
2023-02-11T22:00:47.838Z,103692.16
2023-02-11T22:03:15.977Z,103697.81
2023-02-11T22:05:44.216Z,103696.38
2023-02-11T22:08:12.572Z,103700.91
2023-02-11T22:10:42.634Z,103698.84
2023-02-11T22:13:11.010Z,103701.25
2023-02-11T22:15:40.248Z,103710.34
2023-02-11T22:18:08.494Z,103720.44
2023-02-11T22:20:36.795Z,103717.28
2023-02-11T22:23:04.776Z,103710.81
2023-02-11T22:25:32.868Z,103719.06
2023-02-11T22:28:02.669Z,103725.97
2023-02-11T22:30:31.353Z,103730.69
2023-02-11T22:32:59.656Z,103724.56
2023-02-11T22:35:27.793Z,103722.75
2023-02-11T22:37:55.820Z,103724.38
2023-02-11T22:40:25.615Z,103714.41
2023-02-11T22:42:54.142Z,103723.25
2023-02-11T22:45:24.330Z,103733.31
2023-02-11T22:47:54.449Z,103735.78
2023-02-11T22:50:22.953Z,103741.47
2023-02-11T22:52:51.010Z,103745.53
2023-02-11T22:55:19.375Z,103738.28
2023-02-11T22:57:47.617Z,103742.03
2023-02-11T23:00:17.245Z,103749.13
2023-02-11T23:02:46.844Z,103743.84
2023-02-11T23:05:15.339Z,103746.81
2023-02-11T23:07:43.600Z,103741.41
2023-02-11T23:10:12.161Z,103748.34
2023-02-11T23:12:40.361Z,103752.19
2023-02-11T23:15:09.175Z,103758.88
2023-02-11T23:17:37.323Z,103749.56
2023-02-11T23:20:07.930Z,103751.63
2023-02-11T23:22:35.976Z,103765.13
2023-02-11T23:25:04.006Z,103762.63
2023-02-11T23:27:32.142Z,103764.16
2023-02-11T23:30:00.336Z,103767.03
2023-02-11T23:32:28.234Z,103760.09
2023-02-11T23:34:56.608Z,103759.59
2023-02-11T23:37:26.226Z,103766.41
2023-02-11T23:39:54.483Z,103769.13
2023-02-11T23:42:22.584Z,103768.63
2023-02-11T23:44:50.536Z,103771.72
2023-02-11T23:47:18.515Z,103766.22
2023-02-11T23:49:46.518Z,103767.84
2023-02-11T23:52:14.511Z,103762.03
2023-02-11T23:54:45.612Z,103758.09
2023-02-11T23:57:13.552Z,103758.25
2023-02-11T23:59:43.158Z,103762.97
